Terminal Aerodrome Forecast
Issued by NWS

Home | Current Version | Previous Version | Text Only | Print | Product List | Glossary On
Versions: 1 2 3 4 5 6 7 8 9 10 11 12 13 14 15
000
FTUS45 KLKN 170500
TAFEKO
TAF
KEKO 170533Z 1706/1806 VRB03KT P6SM BKN220
     FM172000 23010G20KT P6SM SCT120
     FM180100 23010KT P6SM BKN120=

USA.gov is the U.S. government's official web portal to all federal, state and local government web resources and services.